createdAt,value
2017-08-31T00:00:08.900Z,24.59
2017-08-31T00:02:35.090Z,24.59
2017-08-31T00:05:01.137Z,24.59
2017-08-31T00:07:27.188Z,24.59
2017-08-31T00:09:53.222Z,24.58
2017-08-31T00:12:19.362Z,24.59
2017-08-31T00:14:45.379Z,24.58
2017-08-31T00:17:11.422Z,24.58
2017-08-31T00:19:37.452Z,24.58
2017-08-31T00:22:03.519Z,24.58
2017-08-31T00:24:29.533Z,24.59
2017-08-31T00:26:55.565Z,24.58
2017-08-31T00:29:21.622Z,24.58
2017-08-31T00:31:48.357Z,24.57
2017-08-31T00:34:15.173Z,24.58
2017-08-31T00:36:41.260Z,24.58
2017-08-31T00:39:07.269Z,24.58
2017-08-31T00:41:33.319Z,24.57
2017-08-31T00:43:59.523Z,24.57
2017-08-31T00:46:25.607Z,24.57
2017-08-31T00:48:51.646Z,24.57
2017-08-31T00:51:17.687Z,24.57
2017-08-31T00:53:43.797Z,24.57
2017-08-31T00:56:10.007Z,24.57
2017-08-31T00:58:36.047Z,24.57
2017-08-31T01:01:02.100Z,24.57
2017-08-31T01:03:28.320Z,24.57
2017-08-31T01:05:54.364Z,24.57
2017-08-31T01:08:21.042Z,24.57
2017-08-31T01:10:47.213Z,24.57
2017-08-31T01:13:13.225Z,24.57
2017-08-31T01:15:39.356Z,24.56
2017-08-31T01:18:05.516Z,24.57
2017-08-31T01:20:31.689Z,24.57
2017-08-31T01:22:58.149Z,24.56
2017-08-31T01:25:24.263Z,24.56
2017-08-31T01:27:50.398Z,24.55
2017-08-31T01:30:16.559Z,24.55
2017-08-31T01:32:42.677Z,24.55
2017-08-31T01:35:08.856Z,24.56
2017-08-31T01:37:34.969Z,24.54
2017-08-31T01:40:01.236Z,24.55
2017-08-31T01:42:27.394Z,24.55
2017-08-31T01:44:53.549Z,24.54
2017-08-31T01:47:32.057Z,24.54
2017-08-31T01:49:58.181Z,24.54
2017-08-31T01:52:24.313Z,24.54
2017-08-31T01:54:50.429Z,24.54
2017-08-31T01:57:16.547Z,24.54
2017-08-31T01:59:42.677Z,24.54
2017-08-31T02:02:08.872Z,24.55
2017-08-31T02:04:35.143Z,24.54
2017-08-31T02:07:01.261Z,24.54
2017-08-31T02:09:27.397Z,24.53
2017-08-31T02:11:53.506Z,24.54
2017-08-31T02:14:19.591Z,24.53
2017-08-31T02:16:45.718Z,24.54
2017-08-31T02:19:11.839Z,24.54
2017-08-31T02:21:37.983Z,24.54
2017-08-31T02:24:04.142Z,24.54
2017-08-31T02:26:30.254Z,24.54
2017-08-31T02:28:56.350Z,24.53
2017-08-31T02:31:22.604Z,24.54
2017-08-31T02:33:48.842Z,24.53
2017-08-31T02:36:14.990Z,24.53
2017-08-31T02:38:41.119Z,24.53
2017-08-31T02:41:07.266Z,24.53
2017-08-31T02:43:33.384Z,24.53
2017-08-31T02:45:59.481Z,24.53
2017-08-31T02:48:25.569Z,24.53
2017-08-31T02:50:51.810Z,24.52
2017-08-31T02:53:17.956Z,24.52
2017-08-31T02:55:44.069Z,24.52
2017-08-31T02:58:10.204Z,24.52
2017-08-31T03:00:36.318Z,24.53
2017-08-31T03:03:02.445Z,24.53
2017-08-31T03:05:28.660Z,24.53
2017-08-31T03:07:55.369Z,24.53
2017-08-31T03:10:21.492Z,24.52
2017-08-31T03:12:47.611Z,24.51
2017-08-31T03:15:13.796Z,24.52
2017-08-31T03:17:39.908Z,24.52
2017-08-31T03:20:06.054Z,24.52
2017-08-31T03:22:32.126Z,24.52
2017-08-31T03:24:58.380Z,24.52
2017-08-31T03:27:24.522Z,24.52
2017-08-31T03:29:50.607Z,24.52
2017-08-31T03:32:16.924Z,24.52
2017-08-31T03:34:43.072Z,24.51
2017-08-31T03:37:09.254Z,24.51
2017-08-31T03:39:35.492Z,24.51
2017-08-31T03:42:01.623Z,24.51
2017-08-31T03:44:27.733Z,24.51
2017-08-31T03:46:53.822Z,24.52
2017-08-31T03:49:19.964Z,24.51
2017-08-31T03:51:46.131Z,24.51
2017-08-31T03:54:12.155Z,24.51
2017-08-31T03:56:38.180Z,24.51
2017-08-31T03:59:04.525Z,24.51
2017-08-31T04:01:30.531Z,24.52
2017-08-31T04:03:56.581Z,24.51
2017-08-31T04:06:22.751Z,24.52
2017-08-31T04:08:48.795Z,24.51
2017-08-31T04:11:14.836Z,24.51
2017-08-31T04:13:40.944Z,24.51
2017-08-31T04:16:07.100Z,24.52
2017-08-31T04:18:33.180Z,24.52
2017-08-31T04:20:59.228Z,24.52
2017-08-31T04:23:25.262Z,24.52
2017-08-31T04:25:51.366Z,24.48
2017-08-31T04:28:18.670Z,24.48
2017-08-31T04:30:44.717Z,24.50
2017-08-31T04:33:10.738Z,24.51
2017-08-31T04:35:36.792Z,24.49
2017-08-31T04:38:02.893Z,24.44
2017-08-31T04:40:29.017Z,24.41
2017-08-31T04:42:55.073Z,24.41
2017-08-31T04:45:21.681Z,24.42
2017-08-31T04:47:47.831Z,24.43
2017-08-31T04:50:13.904Z,24.46
2017-08-31T04:52:39.930Z,24.50
2017-08-31T04:55:05.995Z,24.49
2017-08-31T04:57:32.271Z,24.50
2017-08-31T04:59:58.491Z,24.53
2017-08-31T05:02:24.625Z,24.54
2017-08-31T05:04:50.721Z,24.54
2017-08-31T05:07:16.773Z,24.56
2017-08-31T05:09:42.880Z,24.55
2017-08-31T05:12:09.053Z,24.54
2017-08-31T05:14:35.190Z,24.54
2017-08-31T05:17:01.240Z,24.55
2017-08-31T05:19:27.359Z,24.55
2017-08-31T05:21:53.434Z,24.54
2017-08-31T05:24:19.498Z,24.53
2017-08-31T05:26:45.601Z,24.56
2017-08-31T05:29:11.697Z,24.57
2017-08-31T05:31:37.762Z,24.58
2017-08-31T05:34:03.864Z,24.58
2017-08-31T05:36:29.929Z,24.58
2017-08-31T05:38:56.062Z,24.56
2017-08-31T05:41:22.150Z,24.58
2017-08-31T05:43:48.196Z,24.57
2017-08-31T05:46:14.308Z,24.56
2017-08-31T05:48:40.400Z,24.56
2017-08-31T05:51:06.547Z,24.58
2017-08-31T05:53:32.598Z,24.59
2017-08-31T05:55:58.687Z,24.60
2017-08-31T05:58:24.768Z,24.60
2017-08-31T06:00:51.015Z,24.57
2017-08-31T06:03:17.096Z,24.59
2017-08-31T06:05:43.141Z,24.59
2017-08-31T06:08:09.330Z,24.59
2017-08-31T06:10:35.410Z,24.59
2017-08-31T06:13:01.544Z,24.59
2017-08-31T06:15:27.632Z,24.59
2017-08-31T06:17:53.666Z,24.59
2017-08-31T06:20:19.804Z,24.59
2017-08-31T06:22:45.841Z,24.59
2017-08-31T06:25:11.953Z,24.58
2017-08-31T06:27:37.996Z,24.59
2017-08-31T06:30:04.050Z,24.59
2017-08-31T06:32:30.108Z,24.58
2017-08-31T06:34:56.148Z,24.58
2017-08-31T06:37:22.212Z,24.57
2017-08-31T06:39:48.247Z,24.57
2017-08-31T06:42:14.420Z,24.58
2017-08-31T06:44:40.556Z,24.57
2017-08-31T06:47:06.690Z,24.58
2017-08-31T06:49:32.838Z,24.57
2017-08-31T06:51:58.857Z,24.57
2017-08-31T06:54:24.921Z,24.57
2017-08-31T06:56:51.093Z,24.57
2017-08-31T06:59:17.129Z,24.57
2017-08-31T07:01:43.186Z,24.57
2017-08-31T07:04:09.217Z,24.57
2017-08-31T07:06:35.252Z,24.55
2017-08-31T07:09:01.279Z,24.55
2017-08-31T07:11:27.334Z,24.56
2017-08-31T07:13:53.407Z,24.56
2017-08-31T07:16:20.299Z,24.55
2017-08-31T07:18:46.375Z,24.55
2017-08-31T07:21:12.402Z,24.55
2017-08-31T07:23:38.445Z,24.55
2017-08-31T07:26:04.524Z,24.55
2017-08-31T07:28:31.211Z,24.54
2017-08-31T07:30:57.260Z,24.54
2017-08-31T07:33:23.498Z,24.54
2017-08-31T07:35:49.639Z,24.54
2017-08-31T07:38:15.688Z,24.53
2017-08-31T07:40:41.707Z,24.54
2017-08-31T07:43:07.802Z,24.54
2017-08-31T07:45:33.880Z,24.54
2017-08-31T07:47:59.913Z,24.53
2017-08-31T07:50:26.781Z,24.53
2017-08-31T07:52:52.839Z,24.52
2017-08-31T07:55:19.146Z,24.52
2017-08-31T07:57:45.194Z,24.54
2017-08-31T08:00:11.233Z,24.53
2017-08-31T08:02:37.491Z,24.53
2017-08-31T08:05:03.793Z,24.52
2017-08-31T08:07:29.948Z,24.52
2017-08-31T08:09:56.119Z,24.52
2017-08-31T08:12:22.166Z,24.52
2017-08-31T08:14:48.193Z,24.52
2017-08-31T08:17:14.204Z,24.51
2017-08-31T08:19:40.276Z,24.50
2017-08-31T08:22:06.314Z,24.52
2017-08-31T08:24:32.336Z,24.52
2017-08-31T08:26:58.384Z,24.53
2017-08-31T08:29:24.472Z,24.53
2017-08-31T08:31:50.690Z,24.53
2017-08-31T08:34:16.746Z,24.52
2017-08-31T08:36:42.794Z,24.52
2017-08-31T08:39:08.816Z,24.51
2017-08-31T08:41:35.016Z,24.51
2017-08-31T08:44:01.251Z,24.51
2017-08-31T08:46:27.437Z,24.50
2017-08-31T08:48:53.520Z,24.50
2017-08-31T08:51:19.641Z,24.50
2017-08-31T08:53:45.676Z,24.51
2017-08-31T08:56:11.710Z,24.52
2017-08-31T08:58:37.826Z,24.51
2017-08-31T09:01:04.036Z,24.50
2017-08-31T09:03:30.071Z,24.50
2017-08-31T09:05:56.105Z,24.50
2017-08-31T09:08:22.250Z,24.51
2017-08-31T09:10:48.287Z,24.51
2017-08-31T09:13:14.316Z,24.50
2017-08-31T09:15:40.365Z,24.50
2017-08-31T09:18:06.516Z,24.50
2017-08-31T09:20:32.688Z,24.51
2017-08-31T09:22:58.771Z,24.51
2017-08-31T09:25:24.807Z,24.51
2017-08-31T09:27:50.920Z,24.51
2017-08-31T09:30:17.137Z,24.51
2017-08-31T09:32:43.314Z,24.51
2017-08-31T09:35:09.530Z,24.51
2017-08-31T09:37:35.564Z,24.50
2017-08-31T09:40:01.613Z,24.50
2017-08-31T09:42:27.654Z,24.50
2017-08-31T09:44:53.855Z,24.51
2017-08-31T09:47:19.872Z,24.51
2017-08-31T09:49:46.062Z,24.51
2017-08-31T09:52:12.062Z,24.51
2017-08-31T09:54:38.105Z,24.51
2017-08-31T09:57:04.317Z,24.47
2017-08-31T09:59:30.355Z,24.42
2017-08-31T10:01:56.521Z,24.42
2017-08-31T10:04:22.961Z,24.44
2017-08-31T10:06:48.994Z,24.41
2017-08-31T10:09:15.041Z,24.45
2017-08-31T10:11:41.172Z,24.46
2017-08-31T10:14:07.822Z,24.49
2017-08-31T10:16:33.924Z,24.50
2017-08-31T10:19:00.095Z,24.51
2017-08-31T10:21:26.749Z,24.52
2017-08-31T10:23:52.778Z,24.51
2017-08-31T10:26:19.846Z,24.51
2017-08-31T10:28:45.987Z,24.51
2017-08-31T10:31:12.167Z,24.51
2017-08-31T10:33:38.269Z,24.52
2017-08-31T10:36:04.364Z,24.54
2017-08-31T10:38:30.841Z,24.56
2017-08-31T10:40:56.965Z,24.56
2017-08-31T10:43:23.193Z,24.56
2017-08-31T10:45:49.337Z,24.56
2017-08-31T10:48:15.430Z,24.56
2017-08-31T10:50:42.000Z,24.47
2017-08-31T10:53:08.284Z,24.50
2017-08-31T10:55:34.492Z,24.51
2017-08-31T10:58:00.714Z,24.51
2017-08-31T11:00:26.819Z,24.46
2017-08-31T11:02:52.998Z,24.47
2017-08-31T11:05:19.121Z,24.47
2017-08-31T11:07:45.268Z,24.48
2017-08-31T11:10:11.340Z,24.51
2017-08-31T11:12:37.582Z,24.51
2017-08-31T11:15:03.745Z,24.49
2017-08-31T11:17:29.867Z,24.49
2017-08-31T11:19:55.953Z,24.51
2017-08-31T11:22:22.061Z,24.47
2017-08-31T11:24:48.279Z,24.48
2017-08-31T11:27:14.495Z,24.49
2017-08-31T11:29:40.741Z,24.47
2017-08-31T11:32:06.949Z,24.44
2017-08-31T11:34:33.131Z,24.45
2017-08-31T11:36:59.314Z,24.48
2017-08-31T11:39:25.232Z,24.47
2017-08-31T11:41:51.448Z,24.46
2017-08-31T11:44:17.519Z,24.44
2017-08-31T11:46:43.628Z,24.46
2017-08-31T11:49:09.686Z,24.46
2017-08-31T11:51:35.714Z,24.46
2017-08-31T11:54:01.782Z,24.45
2017-08-31T11:56:28.244Z,24.42
2017-08-31T11:58:54.492Z,24.39
2017-08-31T12:01:20.557Z,24.30
2017-08-31T12:03:46.614Z,24.29
2017-08-31T12:06:12.632Z,24.30
2017-08-31T12:08:38.673Z,24.27
2017-08-31T12:11:04.799Z,24.28
2017-08-31T12:13:30.956Z,24.27
2017-08-31T12:15:57.035Z,24.28
2017-08-31T12:18:23.101Z,24.27
2017-08-31T12:20:49.132Z,24.26
2017-08-31T12:23:15.250Z,24.25
2017-08-31T12:25:41.337Z,24.28
2017-08-31T12:28:07.472Z,24.25
2017-08-31T12:30:33.506Z,24.29
2017-08-31T12:32:59.571Z,24.30
2017-08-31T12:35:25.744Z,24.27
2017-08-31T12:37:51.864Z,24.30
2017-08-31T12:40:17.894Z,24.31
2017-08-31T12:42:43.926Z,24.32
2017-08-31T12:45:10.046Z,24.35
2017-08-31T12:47:36.080Z,24.39
2017-08-31T12:50:02.174Z,24.40
2017-08-31T12:52:28.240Z,24.41
2017-08-31T12:54:54.437Z,24.41
2017-08-31T12:57:20.537Z,24.42
2017-08-31T12:59:46.644Z,24.42
2017-08-31T13:02:12.730Z,24.43
2017-08-31T13:04:38.794Z,24.43
2017-08-31T13:07:04.836Z,24.42
2017-08-31T13:09:30.894Z,24.43
2017-08-31T13:11:57.901Z,24.44
2017-08-31T13:14:23.958Z,24.44
2017-08-31T13:16:50.039Z,24.44
2017-08-31T13:19:16.238Z,24.43
2017-08-31T13:21:42.325Z,24.43
2017-08-31T13:24:08.475Z,24.44
2017-08-31T13:26:34.499Z,24.45
2017-08-31T13:29:01.323Z,24.46
2017-08-31T13:31:27.601Z,24.47
2017-08-31T13:33:53.706Z,24.48
2017-08-31T13:36:19.966Z,24.47
2017-08-31T13:38:47.437Z,24.46
2017-08-31T13:41:13.489Z,24.47
2017-08-31T13:43:39.740Z,24.48
2017-08-31T13:46:05.910Z,24.48
2017-08-31T13:48:31.928Z,24.48
2017-08-31T13:50:58.209Z,24.48
2017-08-31T13:53:24.302Z,24.48
2017-08-31T13:55:50.975Z,24.47
2017-08-31T13:58:17.148Z,24.47
2017-08-31T14:00:43.268Z,24.44
2017-08-31T14:03:10.472Z,24.46
2017-08-31T14:05:36.537Z,24.49
2017-08-31T14:08:03.123Z,24.49
2017-08-31T14:10:29.579Z,24.48
2017-08-31T14:12:55.660Z,24.47
2017-08-31T14:15:21.751Z,24.47
2017-08-31T14:17:48.021Z,24.47
2017-08-31T14:20:14.053Z,24.48
2017-08-31T14:22:40.058Z,24.48
2017-08-31T14:25:06.739Z,24.49
2017-08-31T14:27:32.950Z,24.48
2017-08-31T14:29:59.014Z,24.49
2017-08-31T14:32:25.194Z,24.49
2017-08-31T14:34:51.387Z,24.50
2017-08-31T14:37:17.488Z,24.51
2017-08-31T14:39:43.563Z,24.51
2017-08-31T14:42:09.609Z,24.51
2017-08-31T14:44:35.648Z,24.50
2017-08-31T14:47:01.934Z,24.48
2017-08-31T14:49:28.048Z,24.50
2017-08-31T14:51:55.133Z,24.51
2017-08-31T14:54:21.208Z,24.50
2017-08-31T14:56:47.340Z,24.49
2017-08-31T14:59:13.508Z,24.50
2017-08-31T15:01:39.580Z,24.51
2017-08-31T15:04:05.667Z,24.51
2017-08-31T15:06:35.152Z,24.51
2017-08-31T15:09:01.378Z,24.50
2017-08-31T15:11:27.657Z,24.51
2017-08-31T15:13:53.727Z,24.51
2017-08-31T15:16:20.051Z,24.51
2017-08-31T15:18:48.570Z,24.48
2017-08-31T15:21:17.655Z,24.49
2017-08-31T15:23:43.864Z,24.50
2017-08-31T15:26:10.052Z,24.52
2017-08-31T15:28:37.984Z,24.53
2017-08-31T15:31:06.364Z,24.52
2017-08-31T15:33:34.835Z,24.51
2017-08-31T15:36:07.493Z,24.51
2017-08-31T15:38:35.693Z,24.52
2017-08-31T15:41:07.977Z,24.54
2017-08-31T15:43:36.427Z,24.54
2017-08-31T15:46:08.999Z,24.52
2017-08-31T15:48:35.120Z,24.53
2017-08-31T15:51:03.345Z,24.52
2017-08-31T15:53:29.410Z,24.52
2017-08-31T15:55:55.704Z,24.52
2017-08-31T15:58:21.805Z,24.53
2017-08-31T16:00:48.009Z,24.53
2017-08-31T16:03:14.402Z,24.54
2017-08-31T16:05:40.525Z,24.53
2017-08-31T16:08:06.717Z,24.54
2017-08-31T16:10:32.805Z,24.54
2017-08-31T16:13:00.084Z,24.54
2017-08-31T16:15:26.104Z,24.54
2017-08-31T16:17:52.140Z,24.55
2017-08-31T16:20:18.238Z,24.53
2017-08-31T16:22:44.300Z,24.54
2017-08-31T16:25:10.511Z,24.55
2017-08-31T16:27:36.662Z,24.57
2017-08-31T16:30:02.736Z,24.57
2017-08-31T16:32:28.826Z,24.57
2017-08-31T16:34:54.928Z,24.56
2017-08-31T16:37:21.124Z,24.57
2017-08-31T16:39:47.203Z,24.58
2017-08-31T16:42:13.308Z,24.57
2017-08-31T16:44:39.364Z,24.57
2017-08-31T16:47:05.646Z,24.58
2017-08-31T16:49:31.925Z,24.59
2017-08-31T16:51:57.970Z,24.59
2017-08-31T16:54:24.164Z,24.58
2017-08-31T16:56:50.186Z,24.58
2017-08-31T16:59:16.339Z,24.59
2017-08-31T17:01:42.795Z,24.59
2017-08-31T17:04:08.903Z,24.59
2017-08-31T17:06:35.142Z,24.58
2017-08-31T17:09:01.244Z,24.58
2017-08-31T17:11:29.354Z,24.58
2017-08-31T17:13:55.885Z,24.58
2017-08-31T17:16:22.045Z,24.56
2017-08-31T17:18:48.221Z,24.53
2017-08-31T17:21:15.227Z,24.54
2017-08-31T17:23:42.100Z,24.57
2017-08-31T17:26:08.172Z,24.59
2017-08-31T17:28:34.263Z,24.59
2017-08-31T17:31:00.408Z,24.60
2017-08-31T17:33:26.472Z,24.59
2017-08-31T17:35:52.537Z,24.61
2017-08-31T17:38:18.646Z,24.58
2017-08-31T17:40:45.071Z,24.57
2017-08-31T17:43:11.109Z,24.59
2017-08-31T17:45:37.173Z,24.58
2017-08-31T17:48:03.239Z,24.60
2017-08-31T17:50:29.332Z,24.60
2017-08-31T17:52:56.085Z,24.59
2017-08-31T17:55:22.141Z,24.60
2017-08-31T17:57:51.342Z,24.59
2017-08-31T18:00:17.568Z,24.60
2017-08-31T18:02:43.684Z,24.62
2017-08-31T18:05:09.973Z,24.61
2017-08-31T18:07:36.121Z,24.61
2017-08-31T18:10:02.207Z,24.64
2017-08-31T18:12:28.340Z,24.65
2017-08-31T18:14:54.385Z,24.65
2017-08-31T18:17:20.451Z,24.64
2017-08-31T18:19:46.469Z,24.64
2017-08-31T18:22:12.886Z,24.65
2017-08-31T18:24:38.999Z,24.65
2017-08-31T18:27:05.077Z,24.65
2017-08-31T18:29:31.192Z,24.66
2017-08-31T18:31:57.781Z,24.65
2017-08-31T18:34:23.936Z,24.66
2017-08-31T18:36:49.987Z,24.64
2017-08-31T18:39:16.110Z,24.66
2017-08-31T18:41:42.254Z,24.65
2017-08-31T18:44:08.306Z,24.67
2017-08-31T18:46:34.356Z,24.67
2017-08-31T18:49:00.372Z,24.62
2017-08-31T18:51:26.437Z,24.63
2017-08-31T18:53:52.606Z,24.64
2017-08-31T18:56:18.638Z,24.64
2017-08-31T18:58:44.678Z,24.62
2017-08-31T19:01:10.786Z,24.64
2017-08-31T19:03:37.024Z,24.66
2017-08-31T19:06:03.352Z,24.66
2017-08-31T19:08:29.504Z,24.66
2017-08-31T19:10:55.521Z,24.66
2017-08-31T19:13:21.711Z,24.64
2017-08-31T19:15:47.877Z,24.66
2017-08-31T19:18:13.893Z,24.67
2017-08-31T19:20:39.975Z,24.67
2017-08-31T19:23:06.140Z,24.67
2017-08-31T19:25:32.169Z,24.63
2017-08-31T19:27:58.394Z,24.65
2017-08-31T19:30:24.548Z,24.64
2017-08-31T19:32:50.627Z,24.66
2017-08-31T19:35:16.878Z,24.67
2017-08-31T19:37:42.978Z,24.68
2017-08-31T19:40:09.092Z,24.68
2017-08-31T19:42:35.163Z,24.67
2017-08-31T19:45:01.244Z,24.67
2017-08-31T19:47:27.262Z,24.68
2017-08-31T19:49:53.480Z,24.67
2017-08-31T19:52:19.614Z,24.68
2017-08-31T19:54:45.619Z,24.68
2017-08-31T19:57:11.739Z,24.67
2017-08-31T19:59:37.775Z,24.67
2017-08-31T20:02:03.829Z,24.68
2017-08-31T20:04:29.867Z,24.68
2017-08-31T20:06:56.085Z,24.68
2017-08-31T20:09:22.857Z,24.68
2017-08-31T20:11:48.860Z,24.67
2017-08-31T20:14:15.129Z,24.66
2017-08-31T20:16:41.979Z,24.66
2017-08-31T20:19:08.056Z,24.65
2017-08-31T20:21:34.110Z,24.66
2017-08-31T20:24:00.331Z,24.65
2017-08-31T20:26:26.579Z,24.67
2017-08-31T20:28:52.749Z,24.68
2017-08-31T20:31:19.193Z,24.67
2017-08-31T20:33:45.417Z,24.66
2017-08-31T20:36:11.489Z,24.67
2017-08-31T20:38:38.164Z,24.67
2017-08-31T20:41:04.397Z,24.67
2017-08-31T20:43:30.515Z,24.65
2017-08-31T20:45:56.735Z,24.65
2017-08-31T20:48:22.817Z,24.66
2017-08-31T20:50:49.456Z,24.67
2017-08-31T20:53:15.554Z,24.67
2017-08-31T20:55:41.698Z,24.67
2017-08-31T20:58:07.755Z,24.68
2017-08-31T21:00:33.795Z,24.68
2017-08-31T21:02:59.871Z,24.68
2017-08-31T21:05:26.016Z,24.68
2017-08-31T21:07:52.160Z,24.68
2017-08-31T21:10:18.231Z,24.68
2017-08-31T21:12:44.345Z,24.68
2017-08-31T21:15:10.507Z,24.68
2017-08-31T21:17:36.865Z,24.68
2017-08-31T21:20:02.947Z,24.68
2017-08-31T21:22:29.058Z,24.67
2017-08-31T21:24:55.091Z,24.68
2017-08-31T21:27:21.166Z,24.68
2017-08-31T21:29:47.194Z,24.68
2017-08-31T21:32:13.304Z,24.69
2017-08-31T21:34:39.476Z,24.63
2017-08-31T21:37:05.696Z,24.64
2017-08-31T21:39:31.733Z,24.67
2017-08-31T21:41:57.926Z,24.67
2017-08-31T21:44:24.064Z,24.66
2017-08-31T21:46:50.115Z,24.66
2017-08-31T21:49:16.242Z,24.65
2017-08-31T21:51:42.399Z,24.64
2017-08-31T21:54:08.409Z,24.64
2017-08-31T21:56:35.381Z,24.64
2017-08-31T21:59:01.405Z,24.64
2017-08-31T22:01:27.429Z,24.62
2017-08-31T22:03:53.674Z,24.61
2017-08-31T22:06:19.691Z,24.61
2017-08-31T22:08:45.733Z,24.60
2017-08-31T22:11:11.975Z,24.60
2017-08-31T22:13:38.201Z,24.60
2017-08-31T22:16:04.230Z,24.60
2017-08-31T22:18:30.295Z,24.60
2017-08-31T22:20:56.465Z,24.60
2017-08-31T22:23:22.664Z,24.60
2017-08-31T22:25:48.710Z,24.59
2017-08-31T22:28:14.710Z,24.59
2017-08-31T22:30:40.854Z,24.59
2017-08-31T22:33:07.874Z,24.59
2017-08-31T22:35:33.934Z,24.58
2017-08-31T22:38:00.128Z,24.58
2017-08-31T22:40:26.172Z,24.58
2017-08-31T22:42:52.429Z,24.57
2017-08-31T22:45:18.480Z,24.57
2017-08-31T22:47:44.803Z,24.57
2017-08-31T22:50:10.850Z,24.58
2017-08-31T22:52:37.012Z,24.58
2017-08-31T22:55:15.419Z,24.58
2017-08-31T22:57:53.883Z,24.57
2017-08-31T23:00:19.941Z,24.57
2017-08-31T23:02:46.005Z,24.56
2017-08-31T23:05:12.143Z,24.55
2017-08-31T23:07:38.381Z,24.54
2017-08-31T23:10:04.652Z,24.54
2017-08-31T23:12:30.904Z,24.54
2017-08-31T23:14:57.233Z,24.54
2017-08-31T23:17:23.383Z,24.54
2017-08-31T23:19:49.388Z,24.53
2017-08-31T23:22:15.512Z,24.54
2017-08-31T23:24:41.573Z,24.53
2017-08-31T23:27:07.693Z,24.53
2017-08-31T23:29:33.958Z,24.53
2017-08-31T23:32:00.008Z,24.53
2017-08-31T23:34:26.112Z,24.52
2017-08-31T23:36:53.059Z,24.52
2017-08-31T23:39:19.105Z,24.52
2017-08-31T23:41:45.137Z,24.51
2017-08-31T23:44:11.253Z,24.51
2017-08-31T23:46:37.285Z,24.50
2017-08-31T23:49:04.302Z,24.50
2017-08-31T23:51:30.523Z,24.49
2017-08-31T23:53:56.511Z,24.50
2017-08-31T23:56:22.657Z,24.50
2017-08-31T23:58:48.733Z,24.50
